createdAt,value
2023-05-06T00:00:13.039Z,11.54
2023-05-06T00:01:15.219Z,11.55
2023-05-06T00:02:17.859Z,11.58
2023-05-06T00:03:19.850Z,11.51
2023-05-06T00:04:22.249Z,11.45
2023-05-06T00:05:24.633Z,11.35
2023-05-06T00:06:27.694Z,11.37
2023-05-06T00:07:29.911Z,11.41
2023-05-06T00:08:34.925Z,11.38
2023-05-06T00:09:37.741Z,11.32
2023-05-06T00:10:39.643Z,11.23
2023-05-06T00:11:41.682Z,11.20
2023-05-06T00:12:43.957Z,11.21
2023-05-06T00:13:45.979Z,11.22
2023-05-06T00:14:48.034Z,11.19
2023-05-06T00:15:50.189Z,11.17
2023-05-06T00:16:52.145Z,11.22
2023-05-06T00:17:55.782Z,11.24
2023-05-06T00:18:57.739Z,11.18
2023-05-06T00:19:59.969Z,11.20
2023-05-06T00:21:01.871Z,11.15
2023-05-06T00:22:03.873Z,11.16
2023-05-06T00:23:05.779Z,11.12
2023-05-06T00:24:08.084Z,11.13
2023-05-06T00:25:10.654Z,11.13
2023-05-06T00:26:12.848Z,11.10
2023-05-06T00:27:14.792Z,11.06
2023-05-06T00:28:16.848Z,11.04
2023-05-06T00:29:18.762Z,11.04
2023-05-06T00:30:20.957Z,11.02
2023-05-06T00:31:22.997Z,11.00
2023-05-06T00:32:25.155Z,11.04
2023-05-06T00:33:27.358Z,11.02
2023-05-06T00:34:29.644Z,10.95
2023-05-06T00:35:31.599Z,10.97
2023-05-06T00:36:34.320Z,10.92
2023-05-06T00:37:36.325Z,10.93
2023-05-06T00:38:38.476Z,10.90
2023-05-06T00:39:40.602Z,10.88
2023-05-06T00:40:43.016Z,10.82
2023-05-06T00:41:44.907Z,10.70
2023-05-06T00:42:46.854Z,10.72
2023-05-06T00:43:48.733Z,10.72
2023-05-06T00:44:51.444Z,10.70
2023-05-06T00:45:53.728Z,10.71
2023-05-06T00:46:57.270Z,10.68
2023-05-06T00:47:59.589Z,10.67
2023-05-06T00:49:01.831Z,10.60
2023-05-06T00:50:04.255Z,10.58
2023-05-06T00:51:06.824Z,10.61
2023-05-06T00:52:09.216Z,10.52
2023-05-06T00:53:12.711Z,10.47
2023-05-06T00:54:14.871Z,10.44
2023-05-06T00:55:17.399Z,10.44
2023-05-06T00:56:20.798Z,10.35
2023-05-06T00:57:23.972Z,10.36
2023-05-06T00:58:25.984Z,10.34
2023-05-06T00:59:28.847Z,10.36
2023-05-06T01:00:30.877Z,10.35
2023-05-06T01:01:33.506Z,10.36
2023-05-06T01:02:46.563Z,10.39
2023-05-06T01:03:50.039Z,10.36
2023-05-06T01:04:52.288Z,10.36
2023-05-06T01:06:09.497Z,10.34
2023-05-06T01:07:33.180Z,10.34
2023-05-06T01:08:42.318Z,10.34
2023-05-06T01:09:50.051Z,10.32
2023-05-06T01:10:57.743Z,10.28
2023-05-06T01:12:18.054Z,10.23
2023-05-06T01:13:20.207Z,10.24
2023-05-06T01:14:36.569Z,10.24
2023-05-06T01:15:42.311Z,10.29
2023-05-06T01:16:48.168Z,10.18
2023-05-06T01:17:53.532Z,10.18
2023-05-06T01:18:56.190Z,10.19
2023-05-06T01:20:01.776Z,10.16
2023-05-06T01:21:05.803Z,10.16
2023-05-06T01:22:08.563Z,10.14
2023-05-06T01:23:14.840Z,10.12
2023-05-06T01:24:17.377Z,10.10
2023-05-06T01:26:50.334Z,10.16
2023-05-06T01:27:52.603Z,10.11
2023-05-06T01:28:55.155Z,10.09
2023-05-06T01:29:59.492Z,10.05
2023-05-06T01:31:08.106Z,10.03
2023-05-06T01:32:19.328Z,10.05
2023-05-06T01:33:29.926Z,10.06
2023-05-06T01:35:00.624Z,10.03
2023-05-06T01:36:12.676Z,9.99
2023-05-06T01:37:28.723Z,9.95
2023-05-06T01:38:49.418Z,9.92
2023-05-06T01:39:56.416Z,9.90
2023-05-06T01:41:00.896Z,9.82
2023-05-06T01:42:03.955Z,9.85
2023-05-06T01:43:07.018Z,9.86
2023-05-06T01:44:11.061Z,9.85
2023-05-06T01:45:15.687Z,9.89
2023-05-06T01:46:20.150Z,9.93
2023-05-06T01:47:22.704Z,9.97
2023-05-06T01:48:28.537Z,9.99
2023-05-06T01:49:30.781Z,9.97
2023-05-06T01:50:33.545Z,9.88
2023-05-06T01:51:35.737Z,9.87
2023-05-06T01:52:37.832Z,9.89
2023-05-06T01:53:39.976Z,9.88
2023-05-06T01:54:42.196Z,9.80
2023-05-06T01:55:44.522Z,9.81
2023-05-06T01:56:46.920Z,9.76
2023-05-06T01:57:49.417Z,9.74
2023-05-06T01:58:51.547Z,9.74
2023-05-06T01:59:53.544Z,9.75
2023-05-06T02:00:55.816Z,9.76
2023-05-06T02:01:57.907Z,9.76
2023-05-06T02:03:00.214Z,9.79
2023-05-06T02:04:02.492Z,9.79
2023-05-06T02:05:05.141Z,9.80
2023-05-06T02:06:07.452Z,9.82
2023-05-06T02:07:09.711Z,9.83
2023-05-06T02:08:11.751Z,9.77
2023-05-06T02:09:13.879Z,9.76
2023-05-06T02:10:15.971Z,9.76
2023-05-06T02:11:19.073Z,9.74
2023-05-06T02:12:21.046Z,9.75
2023-05-06T02:13:23.367Z,9.72
2023-05-06T02:14:25.331Z,9.70
2023-05-06T02:15:27.830Z,9.68
2023-05-06T02:16:29.959Z,9.60
2023-05-06T02:17:34.597Z,9.48
2023-05-06T02:18:36.991Z,9.41
2023-05-06T02:19:39.452Z,9.37
2023-05-06T02:20:41.480Z,9.30
2023-05-06T02:22:04.014Z,9.24
2023-05-06T02:23:06.279Z,9.18
2023-05-06T02:24:08.445Z,9.15
2023-05-06T02:25:11.089Z,9.08
2023-05-06T02:26:13.162Z,9.03
2023-05-06T02:27:15.336Z,8.95
2023-05-06T02:28:17.387Z,8.90
2023-05-06T02:29:19.368Z,8.85
2023-05-06T02:30:21.533Z,8.80
2023-05-06T02:31:23.922Z,8.78
2023-05-06T02:32:26.348Z,8.67
2023-05-06T02:33:28.507Z,8.65
2023-05-06T02:34:30.502Z,8.61
2023-05-06T02:35:32.736Z,8.56
2023-05-06T02:36:34.848Z,8.51
2023-05-06T02:37:37.089Z,8.40
2023-05-06T02:38:39.151Z,8.32
2023-05-06T02:39:41.422Z,8.30
2023-05-06T02:40:43.463Z,8.26
2023-05-06T02:41:45.652Z,8.24
2023-05-06T02:42:47.738Z,8.25
2023-05-06T02:43:50.039Z,8.22
2023-05-06T02:44:52.057Z,8.26
2023-05-06T02:45:54.228Z,8.30
2023-05-06T02:46:56.679Z,8.34
2023-05-06T02:47:58.918Z,8.32
2023-05-06T02:49:01.585Z,8.26
2023-05-06T02:50:03.935Z,8.28
2023-05-06T02:51:06.509Z,8.24
2023-05-06T02:52:08.846Z,8.24
2023-05-06T02:53:13.350Z,8.22
2023-05-06T02:54:15.570Z,8.18
2023-05-06T02:55:18.512Z,8.19
2023-05-06T02:56:20.805Z,8.10
2023-05-06T02:57:22.949Z,8.05
2023-05-06T02:58:26.412Z,8.01
2023-05-06T02:59:28.451Z,8.00
2023-05-06T03:00:34.068Z,7.98
2023-05-06T03:01:36.478Z,7.98
2023-05-06T03:02:39.012Z,8.05
2023-05-06T03:03:42.041Z,8.08
2023-05-06T03:04:49.717Z,8.09
2023-05-06T03:05:51.821Z,8.12
2023-05-06T03:06:54.252Z,8.12
2023-05-06T03:07:56.491Z,8.08
2023-05-06T03:08:58.845Z,8.06
2023-05-06T03:10:00.884Z,8.01
2023-05-06T03:11:03.142Z,8.00
2023-05-06T03:12:06.510Z,8.03
2023-05-06T03:13:08.914Z,7.99
2023-05-06T03:14:11.253Z,7.91
2023-05-06T03:15:13.526Z,7.85
2023-05-06T03:16:15.648Z,7.85
2023-05-06T03:17:17.946Z,7.88
2023-05-06T03:18:20.504Z,7.84
2023-05-06T03:19:22.766Z,7.81
2023-05-06T03:20:28.938Z,7.90
2023-05-06T03:21:32.071Z,7.88
2023-05-06T03:22:34.234Z,7.89
2023-05-06T03:23:36.641Z,7.86
2023-05-06T03:24:38.804Z,7.86
2023-05-06T03:25:41.227Z,7.79
2023-05-06T03:26:43.366Z,7.76
2023-05-06T03:27:45.603Z,7.76
2023-05-06T03:28:47.650Z,7.80
2023-05-06T03:29:49.810Z,7.78
2023-05-06T03:30:51.937Z,7.78
2023-05-06T03:31:57.201Z,7.78
2023-05-06T03:33:02.598Z,7.75
2023-05-06T03:34:06.870Z,7.80
2023-05-06T03:35:12.023Z,7.80
2023-05-06T03:36:17.288Z,7.76
2023-05-06T03:37:21.387Z,7.78
2023-05-06T03:38:23.576Z,7.80
2023-05-06T03:39:25.508Z,7.80
2023-05-06T03:40:27.655Z,7.80
2023-05-06T03:41:30.203Z,7.85
2023-05-06T03:42:32.459Z,7.86
2023-05-06T03:43:34.483Z,7.90
2023-05-06T03:44:36.621Z,7.84
2023-05-06T03:45:38.870Z,7.74
2023-05-06T03:46:41.997Z,7.69
2023-05-06T03:47:45.846Z,7.71
2023-05-06T03:48:51.104Z,7.72
2023-05-06T03:49:53.531Z,7.73
2023-05-06T03:50:56.079Z,7.65
2023-05-06T03:51:58.314Z,7.59
2023-05-06T03:53:11.610Z,7.59
2023-05-06T03:54:14.149Z,7.56
2023-05-06T03:55:31.726Z,7.64
2023-05-06T03:56:36.327Z,7.61
2023-05-06T03:57:39.053Z,7.63
2023-05-06T03:58:41.018Z,7.64
2023-05-06T03:59:43.064Z,7.64
2023-05-06T04:00:45.724Z,7.62
2023-05-06T04:01:47.942Z,7.60
2023-05-06T04:02:50.179Z,7.48
2023-05-06T04:03:55.684Z,7.39
2023-05-06T04:04:57.658Z,7.28
2023-05-06T04:06:02.563Z,7.28
2023-05-06T04:07:04.913Z,7.31
2023-05-06T04:08:10.610Z,7.28
2023-05-06T04:09:15.904Z,7.26
2023-05-06T04:10:18.156Z,7.26
2023-05-06T04:11:20.060Z,7.20
2023-05-06T04:12:22.097Z,7.17
2023-05-06T04:13:24.095Z,7.19
2023-05-06T04:14:26.295Z,7.26
2023-05-06T04:15:32.205Z,7.32
2023-05-06T04:16:34.529Z,7.36
2023-05-06T04:17:36.577Z,7.33
2023-05-06T04:18:40.067Z,7.23
2023-05-06T04:19:42.294Z,7.21
2023-05-06T04:20:47.237Z,7.18
2023-05-06T04:21:49.351Z,7.15
2023-05-06T04:22:52.282Z,7.19
2023-05-06T04:23:54.937Z,7.17
2023-05-06T04:24:57.145Z,7.20
2023-05-06T04:25:59.450Z,7.17
2023-05-06T04:27:03.657Z,7.18
2023-05-06T04:28:06.401Z,7.13
2023-05-06T04:29:09.320Z,7.17
2023-05-06T04:30:12.108Z,7.07
2023-05-06T04:31:14.743Z,7.04
2023-05-06T04:32:18.260Z,7.11
2023-05-06T04:33:20.364Z,7.00
2023-05-06T04:34:22.257Z,6.92
2023-05-06T04:35:24.453Z,6.86
2023-05-06T04:36:26.816Z,6.78
2023-05-06T04:37:29.261Z,6.81
2023-05-06T04:38:32.370Z,6.73
2023-05-06T04:39:34.497Z,6.74
2023-05-06T04:40:39.763Z,6.63
2023-05-06T04:41:42.053Z,6.65
2023-05-06T04:42:44.203Z,6.51
2023-05-06T04:43:46.761Z,6.46
2023-05-06T04:44:49.324Z,6.35
2023-05-06T04:45:51.755Z,6.29
2023-05-06T04:46:53.795Z,6.26
2023-05-06T04:47:56.008Z,6.21
2023-05-06T04:48:58.457Z,6.22
2023-05-06T04:50:00.637Z,6.21
2023-05-06T04:51:04.635Z,6.22
2023-05-06T04:52:07.225Z,6.23
2023-05-06T04:53:09.508Z,6.17
2023-05-06T04:54:11.829Z,6.11
2023-05-06T04:55:13.918Z,6.09
2023-05-06T04:56:16.132Z,6.15
2023-05-06T04:57:18.347Z,6.21
2023-05-06T04:58:20.700Z,6.25
2023-05-06T04:59:22.956Z,6.16
2023-05-06T05:00:26.550Z,6.17
2023-05-06T05:01:28.611Z,6.21
2023-05-06T05:02:30.994Z,6.29
2023-05-06T05:03:33.242Z,6.23
2023-05-06T05:04:35.696Z,6.18
2023-05-06T05:05:37.722Z,6.13
2023-05-06T05:06:40.076Z,6.11
2023-05-06T05:07:42.236Z,6.13
2023-05-06T05:08:44.425Z,6.12
2023-05-06T05:09:46.731Z,6.15
2023-05-06T05:10:48.871Z,6.08
2023-05-06T05:11:51.373Z,5.88
2023-05-06T05:12:53.609Z,5.92
2023-05-06T05:13:56.893Z,5.96
2023-05-06T05:14:59.729Z,5.91
2023-05-06T05:16:01.989Z,5.99
2023-05-06T05:17:04.216Z,5.91
2023-05-06T05:18:06.425Z,5.98
2023-05-06T05:19:09.378Z,5.98
2023-05-06T05:20:12.245Z,5.96
2023-05-06T05:21:14.377Z,5.90
2023-05-06T05:22:16.582Z,5.86
2023-05-06T05:23:18.928Z,5.90
2023-05-06T05:24:21.082Z,5.90
2023-05-06T05:25:23.823Z,5.88
2023-05-06T05:26:26.216Z,5.84
2023-05-06T05:27:28.580Z,5.75
2023-05-06T05:28:30.721Z,5.75
2023-05-06T05:29:33.047Z,5.81
2023-05-06T05:30:35.042Z,5.77
2023-05-06T05:31:37.220Z,5.79
2023-05-06T05:32:39.490Z,5.76
2023-05-06T05:33:41.795Z,5.65
2023-05-06T05:34:43.835Z,5.63
2023-05-06T05:35:45.989Z,5.61
2023-05-06T05:36:47.991Z,5.57
2023-05-06T05:37:50.246Z,5.51
2023-05-06T05:38:52.187Z,5.53
2023-05-06T05:39:54.305Z,5.48
2023-05-06T05:40:56.319Z,5.49
2023-05-06T05:41:58.442Z,5.53
2023-05-06T05:43:00.582Z,5.52
2023-05-06T05:44:03.039Z,5.42
2023-05-06T05:45:05.530Z,5.47
2023-05-06T05:46:08.268Z,5.51
2023-05-06T05:47:10.585Z,5.62
2023-05-06T05:48:12.774Z,5.62
2023-05-06T05:49:15.032Z,5.68
2023-05-06T05:50:17.384Z,5.61
2023-05-06T05:51:19.633Z,5.58
2023-05-06T05:52:21.887Z,5.56
2023-05-06T05:53:24.016Z,5.50
2023-05-06T05:54:26.527Z,5.41
2023-05-06T05:55:29.706Z,5.43
2023-05-06T05:56:31.808Z,5.36
2023-05-06T05:57:33.754Z,5.35
2023-05-06T05:58:35.855Z,5.34
2023-05-06T05:59:38.115Z,5.32
2023-05-06T06:00:40.502Z,5.23
2023-05-06T06:01:42.712Z,5.11
2023-05-06T06:02:45.249Z,5.03
2023-05-06T06:03:48.132Z,5.08
2023-05-06T06:04:50.402Z,4.96
2023-05-06T06:05:55.457Z,4.95
2023-05-06T06:07:02.202Z,4.88
2023-05-06T06:08:04.773Z,4.89
2023-05-06T06:09:07.640Z,4.85
2023-05-06T06:10:10.001Z,4.88
2023-05-06T06:11:12.250Z,4.91
2023-05-06T06:12:14.400Z,4.92
2023-05-06T06:13:16.840Z,4.96
2023-05-06T06:14:19.061Z,4.91
2023-05-06T06:15:22.402Z,4.90
2023-05-06T06:16:24.670Z,4.83
2023-05-06T06:17:27.071Z,4.81
2023-05-06T06:18:29.296Z,4.70
2023-05-06T06:19:31.486Z,4.75
2023-05-06T06:20:33.509Z,4.78
2023-05-06T06:21:36.097Z,4.83
2023-05-06T06:22:38.131Z,4.84
2023-05-06T06:23:40.652Z,4.84
2023-05-06T06:24:43.680Z,4.80
2023-05-06T06:25:46.212Z,4.72
2023-05-06T06:26:48.508Z,4.71
2023-05-06T06:27:50.688Z,4.73
2023-05-06T06:28:52.635Z,4.75
2023-05-06T06:29:54.785Z,4.84
2023-05-06T06:30:56.812Z,4.89
2023-05-06T06:31:59.581Z,4.81
2023-05-06T06:33:02.037Z,4.89
2023-05-06T06:34:06.769Z,4.92
2023-05-06T06:35:09.191Z,4.96
2023-05-06T06:36:11.536Z,5.00
2023-05-06T06:37:13.671Z,4.93
2023-05-06T06:38:15.827Z,4.95
2023-05-06T06:39:17.875Z,4.91
2023-05-06T06:40:20.897Z,4.84
2023-05-06T06:41:23.052Z,4.95
2023-05-06T06:42:25.636Z,4.97
2023-05-06T06:43:28.377Z,5.00
2023-05-06T06:44:31.228Z,5.03
2023-05-06T06:45:33.246Z,4.98
2023-05-06T06:46:35.508Z,4.95
2023-05-06T06:47:37.561Z,4.86
2023-05-06T06:48:39.792Z,4.78
2023-05-06T06:49:41.855Z,4.79
2023-05-06T06:50:44.060Z,4.75
2023-05-06T06:51:46.275Z,4.74
2023-05-06T06:52:48.320Z,4.80
2023-05-06T06:53:52.099Z,4.83
2023-05-06T06:54:54.367Z,4.84
2023-05-06T06:55:56.462Z,4.89
2023-05-06T06:56:58.629Z,4.95
2023-05-06T06:58:00.709Z,4.90
2023-05-06T06:59:02.826Z,4.96
2023-05-06T07:00:05.470Z,5.00
2023-05-06T07:01:11.334Z,5.07
2023-05-06T07:02:13.447Z,5.13
2023-05-06T07:03:19.892Z,5.18
2023-05-06T07:04:21.975Z,5.23
2023-05-06T07:05:24.125Z,5.24
2023-05-06T07:06:26.057Z,5.30
2023-05-06T07:07:28.322Z,5.33
2023-05-06T07:08:30.417Z,5.38
2023-05-06T07:09:35.049Z,5.43
2023-05-06T07:10:37.995Z,5.49
2023-05-06T07:11:40.076Z,5.53
2023-05-06T07:12:42.127Z,5.57
2023-05-06T07:13:44.241Z,5.53
2023-05-06T07:14:46.431Z,5.51
2023-05-06T07:15:48.591Z,5.54
2023-05-06T07:16:51.585Z,5.55
2023-05-06T07:17:54.136Z,5.48
2023-05-06T07:18:56.213Z,5.47
2023-05-06T07:19:58.402Z,5.49
2023-05-06T07:21:00.330Z,5.51
2023-05-06T07:22:03.182Z,5.52
2023-05-06T07:23:05.584Z,5.53
2023-05-06T07:24:08.092Z,5.59
2023-05-06T07:25:10.534Z,5.63
2023-05-06T07:26:12.782Z,5.68
2023-05-06T07:27:14.998Z,5.67
2023-05-06T07:28:17.268Z,5.73
2023-05-06T07:29:19.333Z,5.73
2023-05-06T07:30:23.165Z,5.70
2023-05-06T07:31:25.480Z,5.72
2023-05-06T07:32:27.535Z,5.71
2023-05-06T07:33:29.557Z,5.73
2023-05-06T07:34:31.865Z,5.75
2023-05-06T07:35:33.922Z,5.82
2023-05-06T07:36:40.822Z,5.71
2023-05-06T07:37:43.106Z,5.70
2023-05-06T07:38:45.720Z,5.67
2023-05-06T07:39:47.744Z,5.61
2023-05-06T07:40:51.065Z,5.61
2023-05-06T07:41:53.446Z,5.60
2023-05-06T07:42:55.856Z,5.62
2023-05-06T07:43:58.074Z,5.60
2023-05-06T07:45:00.040Z,5.56
2023-05-06T07:46:04.982Z,5.53
2023-05-06T07:47:07.462Z,5.52
2023-05-06T07:48:09.767Z,5.54
2023-05-06T07:49:11.966Z,5.47
2023-05-06T07:50:14.050Z,5.37
2023-05-06T07:51:16.723Z,5.38
2023-05-06T07:52:18.851Z,5.36
2023-05-06T07:53:20.869Z,5.35
2023-05-06T07:54:23.070Z,5.38
2023-05-06T07:55:24.957Z,5.42
2023-05-06T07:56:27.100Z,5.39
2023-05-06T07:57:29.118Z,5.43
2023-05-06T07:58:32.006Z,5.40
2023-05-06T07:59:34.333Z,5.26
2023-05-06T08:00:36.496Z,5.31
2023-05-06T08:01:38.570Z,5.30
2023-05-06T08:02:44.841Z,5.33
2023-05-06T08:03:47.226Z,5.30
2023-05-06T08:04:51.460Z,5.31
2023-05-06T08:05:55.382Z,5.26
2023-05-06T08:06:57.735Z,5.24
2023-05-06T08:07:59.701Z,5.27
2023-05-06T08:09:01.723Z,5.32
2023-05-06T08:10:04.434Z,5.37
2023-05-06T08:11:06.725Z,5.40
2023-05-06T08:12:08.933Z,5.38
2023-05-06T08:13:11.879Z,5.41
2023-05-06T08:14:13.976Z,5.44
2023-05-06T08:15:16.729Z,5.47
2023-05-06T08:16:18.776Z,5.52
2023-05-06T08:17:21.391Z,5.57
2023-05-06T08:18:23.604Z,5.60
2023-05-06T08:19:27.477Z,5.62
2023-05-06T08:20:29.404Z,5.58
2023-05-06T08:21:31.584Z,5.60
2023-05-06T08:22:33.736Z,5.59
2023-05-06T08:23:35.856Z,5.56
2023-05-06T08:24:37.858Z,5.57
2023-05-06T08:25:39.914Z,5.57
2023-05-06T08:26:42.073Z,5.62
2023-05-06T08:27:44.124Z,5.71
2023-05-06T08:28:46.234Z,5.77
2023-05-06T08:29:48.483Z,5.82
2023-05-06T08:30:52.407Z,5.81
2023-05-06T08:31:54.351Z,5.85
2023-05-06T08:32:56.485Z,5.88
2023-05-06T08:33:58.818Z,5.92
2023-05-06T08:35:00.980Z,5.96
2023-05-06T08:36:03.299Z,6.01
2023-05-06T08:37:05.410Z,5.99
2023-05-06T08:38:07.601Z,6.00
2023-05-06T08:39:09.561Z,5.95
2023-05-06T08:40:21.239Z,5.93
2023-05-06T08:41:26.538Z,5.99
2023-05-06T08:42:30.675Z,6.03
2023-05-06T08:43:35.510Z,6.12
2023-05-06T08:44:38.403Z,6.15
2023-05-06T08:45:41.931Z,6.09
2023-05-06T08:46:44.014Z,6.10
2023-05-06T08:47:49.017Z,6.12
2023-05-06T08:48:51.251Z,6.11
2023-05-06T08:49:53.385Z,6.12
2023-05-06T08:50:57.630Z,6.13
2023-05-06T08:52:04.506Z,6.07
2023-05-06T08:53:07.545Z,6.07
2023-05-06T08:54:11.710Z,6.14
2023-05-06T08:55:14.068Z,6.24
2023-05-06T08:56:16.950Z,6.24
2023-05-06T08:57:19.740Z,6.21
2023-05-06T08:58:22.889Z,6.22
2023-05-06T08:59:27.149Z,6.24
2023-05-06T09:00:29.183Z,6.24
2023-05-06T09:01:31.352Z,6.18
2023-05-06T09:02:33.486Z,6.18
2023-05-06T09:03:35.655Z,6.18
2023-05-06T09:04:37.762Z,6.22
2023-05-06T09:05:39.949Z,6.24
2023-05-06T09:06:42.094Z,6.27
2023-05-06T09:07:44.236Z,6.32
2023-05-06T09:08:46.200Z,6.36
2023-05-06T09:09:48.898Z,6.43
2023-05-06T09:10:50.906Z,6.46
2023-05-06T09:11:57.838Z,6.49
2023-05-06T09:13:00.037Z,6.49
2023-05-06T09:14:18.294Z,6.47
2023-05-06T09:15:24.477Z,6.46
2023-05-06T09:16:31.191Z,6.43
2023-05-06T09:17:33.367Z,6.34
2023-05-06T09:18:37.550Z,6.33
2023-05-06T09:19:39.593Z,6.32
2023-05-06T09:20:46.786Z,6.29
2023-05-06T09:21:50.688Z,6.27
2023-05-06T09:22:54.048Z,6.25
2023-05-06T09:23:56.152Z,6.26
2023-05-06T09:24:59.096Z,6.27
2023-05-06T09:26:02.046Z,6.30
2023-05-06T09:27:04.697Z,6.32
2023-05-06T09:28:12.304Z,6.38
2023-05-06T09:29:14.796Z,6.45
2023-05-06T09:30:17.054Z,6.48
2023-05-06T09:31:19.366Z,6.53
2023-05-06T09:32:22.279Z,6.57
2023-05-06T09:33:24.388Z,6.62
2023-05-06T09:34:28.022Z,6.67
